Autaugaville, Alabama
Current Conditions -  °F | °C
As of 5:15 AM on Sunday 23 Nov 2014 (Local Time) from K1A9 Reporting Station
Haze Haze  
Wind Chill: 14°   Ceiling: 400
Heat Index: 14°   Visibility: 4mi
Dew Point: 13°   Wind: 7mph
Humidity: 98%   Direction: 80°E
Pressure: 29.9"   Gusts: NA
Location:  32.43°N, 86.65°W
Report Text: K1A9 231115Z AUTO 08006KT 4SM BR OVC004 14/13 A2990 RMK AO2 T01350132
Loading
Personal Weather Stations






























Interactive Weather Map New forecast layout! Learn more

10-Day Weather Forecast

Advertisements
Track Severe Weather on mobile